Saint Louis, Missouri
Traffic Map
Current Weather Conditions
Saint Louis, Missouri
Broken Clouds
Broken Clouds
20°
Feels Like: 20°
Wind Chill: 20° Ceiling: 9000
Heat Index: 20° Visibility: 10mi
Dew Point: 18° Wind: 7mph
Humidity: 87% Direction: 150° (SSE)
Pressure: 29.89in Gusts: 0mph
Raw Report DataKCPS 260853Z AUTO 15006KT 10SM BKN090 20/18 A2989 RMK AO2 SLP119 T02000178 56007 $
Traffic Incident Summary
Active as of:
Severity:
Category:
InformationThere was an issue retrieving the traffic information for this location. Please try a different location or try again shortly.
Advertisements
Track Severe Weather on mobile